createdAt,value
2023-05-11T00:00:25.103Z,13.76
2023-05-11T00:03:28.007Z,13.78
2023-05-11T00:06:32.310Z,13.75
2023-05-11T00:09:35.605Z,13.80
2023-05-11T00:12:38.180Z,13.76
2023-05-11T00:15:40.863Z,13.81
2023-05-11T00:18:43.505Z,13.85
2023-05-11T00:21:46.145Z,13.74
2023-05-11T00:24:48.817Z,13.68
2023-05-11T00:27:51.322Z,13.70
2023-05-11T00:30:57.937Z,13.67
2023-05-11T00:34:00.463Z,13.79
2023-05-11T00:37:03.117Z,13.69
2023-05-11T00:40:06.532Z,13.66
2023-05-11T00:43:09.310Z,13.66
2023-05-11T00:46:11.795Z,13.71
2023-05-11T00:49:17.389Z,13.65
2023-05-11T00:52:22.049Z,13.60
2023-05-11T00:55:24.943Z,13.54
2023-05-11T00:58:27.499Z,13.54
2023-05-11T01:01:30.959Z,13.42
2023-05-11T01:04:34.292Z,13.43
2023-05-11T01:08:02.243Z,13.36
2023-05-11T01:11:09.383Z,13.38
2023-05-11T01:15:08.750Z,13.32
2023-05-11T01:18:23.607Z,13.33
2023-05-11T01:21:31.514Z,13.27
2023-05-11T01:25:21.165Z,13.23
2023-05-11T01:28:33.818Z,13.21
2023-05-11T01:31:42.760Z,13.33
2023-05-11T01:34:47.507Z,13.33
2023-05-11T01:37:53.185Z,13.29
2023-05-11T01:40:59.066Z,13.21
2023-05-11T01:44:06.445Z,13.15
2023-05-11T01:47:10.630Z,13.06
2023-05-11T01:50:14.248Z,12.98
2023-05-11T01:53:18.265Z,12.95
2023-05-11T01:56:22.968Z,12.94
2023-05-11T01:59:26.558Z,12.99
2023-05-11T02:02:30.089Z,13.00
2023-05-11T02:05:35.204Z,12.96
2023-05-11T02:08:40.765Z,12.97
2023-05-11T02:11:46.719Z,12.97
2023-05-11T02:14:53.765Z,13.01
2023-05-11T02:17:57.518Z,12.97
2023-05-11T02:21:01.435Z,12.89
2023-05-11T02:24:06.512Z,12.90
2023-05-11T02:27:09.172Z,12.96
2023-05-11T02:30:12.981Z,12.97
2023-05-11T02:33:31.060Z,12.88
2023-05-11T02:36:37.705Z,12.79
2023-05-11T02:39:46.049Z,12.78
2023-05-11T02:42:53.820Z,12.80
2023-05-11T02:46:02.318Z,12.82
2023-05-11T02:49:08.766Z,12.77
2023-05-11T02:52:13.479Z,12.70
2023-05-11T02:55:21.334Z,12.66
2023-05-11T02:58:24.570Z,12.68
2023-05-11T03:01:36.278Z,12.55
2023-05-11T03:04:40.169Z,12.59
2023-05-11T03:07:43.111Z,12.69
2023-05-11T03:10:47.059Z,12.58
2023-05-11T03:13:50.403Z,12.56
2023-05-11T03:16:56.600Z,12.49
2023-05-11T03:20:03.437Z,12.51
2023-05-11T03:23:07.652Z,12.40
2023-05-11T03:26:12.179Z,12.26
2023-05-11T03:29:17.916Z,12.38
2023-05-11T03:32:20.649Z,12.36
2023-05-11T03:35:27.350Z,12.39
2023-05-11T03:38:32.422Z,12.38
2023-05-11T03:41:39.908Z,12.34
2023-05-11T03:44:46.389Z,12.29
2023-05-11T03:47:52.300Z,12.27
2023-05-11T03:50:56.170Z,12.23
2023-05-11T03:53:59.672Z,12.27
2023-05-11T03:57:02.349Z,12.32
2023-05-11T04:00:05.689Z,12.39
2023-05-11T04:03:17.762Z,12.50
2023-05-11T04:06:20.569Z,12.54
2023-05-11T04:09:30.008Z,12.60
2023-05-11T04:12:32.723Z,12.56
2023-05-11T04:15:37.464Z,12.43
2023-05-11T04:18:40.039Z,12.51
2023-05-11T04:21:42.690Z,12.58
2023-05-11T04:24:45.188Z,12.65
2023-05-11T04:27:47.696Z,12.69
2023-05-11T04:30:57.391Z,12.76
2023-05-11T04:34:00.213Z,12.82
2023-05-11T04:37:07.293Z,12.94
2023-05-11T04:40:11.277Z,13.07
2023-05-11T04:43:16.935Z,13.13
2023-05-11T04:46:19.504Z,13.21
2023-05-11T04:49:22.105Z,13.32
2023-05-11T04:52:24.652Z,13.45
2023-05-11T04:55:27.205Z,13.53
2023-05-11T04:58:31.103Z,13.50
2023-05-11T05:01:34.162Z,13.39
2023-05-11T05:04:38.236Z,13.44
2023-05-11T05:07:40.915Z,13.67
2023-05-11T05:10:43.972Z,13.35
2023-05-11T05:13:46.603Z,13.45
2023-05-11T05:16:49.256Z,13.44
2023-05-11T05:19:51.814Z,13.42
2023-05-11T05:22:55.318Z,13.53
2023-05-11T05:25:57.999Z,13.55
2023-05-11T05:29:01.267Z,13.55
2023-05-11T05:32:04.318Z,13.75
2023-05-11T05:35:08.553Z,14.08
2023-05-11T05:38:12.831Z,14.14
2023-05-11T05:41:15.608Z,14.42
2023-05-11T05:44:26.928Z,14.66
2023-05-11T05:47:34.545Z,14.78
2023-05-11T05:50:37.901Z,14.77
2023-05-11T05:53:40.587Z,14.85
2023-05-11T05:56:44.810Z,14.87
2023-05-11T05:59:47.663Z,14.93
2023-05-11T06:02:53.737Z,14.98
2023-05-11T06:06:02.349Z,15.06
2023-05-11T06:09:05.371Z,15.00
2023-05-11T06:12:09.403Z,14.92
2023-05-11T06:15:16.425Z,15.04
2023-05-11T06:18:24.411Z,15.09
2023-05-11T06:21:27.588Z,14.51
2023-05-11T06:24:30.207Z,14.41
2023-05-11T06:27:35.515Z,14.51
2023-05-11T06:30:39.189Z,14.53
2023-05-11T06:33:43.972Z,14.51
2023-05-11T06:36:55.444Z,14.74
2023-05-11T06:39:59.533Z,14.81
2023-05-11T06:43:02.972Z,14.79
2023-05-11T06:46:18.854Z,14.79
2023-05-11T06:49:21.734Z,15.06
2023-05-11T06:52:24.310Z,15.04
2023-05-11T06:55:27.929Z,15.08
2023-05-11T06:58:31.434Z,15.23
2023-05-11T07:01:34.320Z,15.20
2023-05-11T07:04:38.165Z,15.12
2023-05-11T07:07:40.875Z,14.92
2023-05-11T07:10:43.716Z,14.90
2023-05-11T07:13:46.595Z,15.19
2023-05-11T07:16:52.948Z,15.26
2023-05-11T07:19:55.702Z,15.47
2023-05-11T07:23:00.571Z,15.53
2023-05-11T07:26:09.302Z,15.54
2023-05-11T07:29:11.979Z,15.48
2023-05-11T07:32:15.043Z,15.60
2023-05-11T07:35:17.985Z,15.33
2023-05-11T07:38:20.543Z,15.26
2023-05-11T07:41:26.712Z,15.21
2023-05-11T07:44:29.348Z,15.46
2023-05-11T07:47:33.648Z,15.59
2023-05-11T07:50:37.998Z,15.55
2023-05-11T07:53:40.813Z,15.76
2023-05-11T07:56:43.344Z,15.95
2023-05-11T07:59:45.835Z,15.93
2023-05-11T08:02:48.644Z,15.88
2023-05-11T08:05:54.637Z,15.79
2023-05-11T08:08:57.473Z,15.94
2023-05-11T08:12:01.734Z,16.09
2023-05-11T08:15:05.781Z,16.25
2023-05-11T08:18:08.595Z,16.15
2023-05-11T08:21:11.583Z,16.67
2023-05-11T08:24:14.303Z,16.98
2023-05-11T08:27:17.398Z,17.17
2023-05-11T08:30:19.996Z,17.25
2023-05-11T08:33:36.558Z,17.42
2023-05-11T08:36:41.220Z,17.82
2023-05-11T08:39:47.712Z,17.99
2023-05-11T08:42:56.176Z,18.06
2023-05-11T08:46:03.700Z,18.06
2023-05-11T08:49:09.441Z,18.16
2023-05-11T08:52:15.551Z,18.10
2023-05-11T08:55:18.335Z,18.40
2023-05-11T08:58:22.597Z,18.56
2023-05-11T09:01:28.602Z,18.83
2023-05-11T09:04:32.596Z,18.92
2023-05-11T09:07:37.415Z,19.09
2023-05-11T09:10:40.286Z,19.21
2023-05-11T09:13:42.764Z,19.19
2023-05-11T09:16:45.754Z,19.21
2023-05-11T09:20:05.615Z,19.54
2023-05-11T09:23:08.523Z,19.50
2023-05-11T09:26:21.584Z,19.55
2023-05-11T09:29:24.181Z,19.46
2023-05-11T09:32:50.314Z,19.63
2023-05-11T09:35:54.285Z,19.88
2023-05-11T09:39:02.792Z,19.87
2023-05-11T09:42:16.410Z,20.07
2023-05-11T09:45:42.172Z,20.53
2023-05-11T09:48:44.897Z,20.69
2023-05-11T09:51:47.577Z,20.42
2023-05-11T09:54:52.040Z,20.46
2023-05-11T09:57:57.084Z,20.61
2023-05-11T10:00:59.745Z,20.54
2023-05-11T10:04:21.077Z,20.72
2023-05-11T10:07:29.860Z,20.87
2023-05-11T10:10:35.501Z,20.99
2023-05-11T10:13:38.773Z,21.23
2023-05-11T10:16:43.546Z,21.07
2023-05-11T10:19:49.892Z,20.80
2023-05-11T10:22:54.145Z,20.47
2023-05-11T10:25:57.292Z,20.67
2023-05-11T10:29:01.583Z,20.88
2023-05-11T10:32:07.379Z,21.29
2023-05-11T10:35:10.224Z,21.66
2023-05-11T10:38:13.667Z,21.67
2023-05-11T10:41:46.550Z,22.26
2023-05-11T10:45:01.749Z,22.68
2023-05-11T10:48:17.340Z,22.51
2023-05-11T10:51:31.341Z,22.72
2023-05-11T10:54:36.691Z,22.84
2023-05-11T10:58:10.608Z,22.90
2023-05-11T11:01:31.757Z,22.49
2023-05-11T11:04:48.962Z,22.60
2023-05-11T11:07:58.855Z,22.96
2023-05-11T11:11:01.584Z,22.53
2023-05-11T11:14:06.182Z,22.67
2023-05-11T11:17:14.769Z,22.57
2023-05-11T11:20:47.676Z,22.36
2023-05-11T11:23:50.594Z,21.30
2023-05-11T11:26:53.427Z,22.65
2023-05-11T11:30:30.885Z,23.40
2023-05-11T11:33:34.320Z,23.63
2023-05-11T11:36:55.235Z,24.04
2023-05-11T11:40:05.961Z,23.44
2023-05-11T11:43:22.647Z,23.81
2023-05-11T11:46:28.205Z,23.18
2023-05-11T11:49:31.685Z,23.47
2023-05-11T11:52:34.918Z,23.77
2023-05-11T11:55:55.641Z,23.74
2023-05-11T11:58:59.777Z,23.16
2023-05-11T12:02:03.969Z,24.25
2023-05-11T12:05:19.133Z,24.19
2023-05-11T12:08:27.607Z,24.93
2023-05-11T12:11:30.693Z,24.86
2023-05-11T12:14:35.050Z,25.12
2023-05-11T12:17:39.207Z,24.26
2023-05-11T12:20:42.064Z,25.71
2023-05-11T12:23:59.157Z,24.45
2023-05-11T12:27:04.428Z,22.85
2023-05-11T12:30:09.497Z,24.43
2023-05-11T12:33:15.861Z,25.66
2023-05-11T12:36:21.087Z,23.31
2023-05-11T12:39:27.683Z,23.32
2023-05-11T12:42:35.148Z,22.54
2023-05-11T12:45:42.073Z,22.21
2023-05-11T12:48:47.978Z,22.15
2023-05-11T12:52:03.324Z,22.09
2023-05-11T12:55:06.832Z,22.65
2023-05-11T12:58:16.545Z,23.41
2023-05-11T13:01:25.639Z,24.85
2023-05-11T13:04:31.583Z,25.95
2023-05-11T13:07:36.471Z,24.33
2023-05-11T13:10:41.319Z,22.46
2023-05-11T13:13:46.603Z,22.07
2023-05-11T13:16:54.197Z,22.36
2023-05-11T13:20:15.863Z,23.05
2023-05-11T13:23:23.194Z,23.77
2023-05-11T13:26:30.189Z,24.98
2023-05-11T13:29:34.911Z,25.50
2023-05-11T13:32:40.282Z,25.82
2023-05-11T13:35:45.916Z,25.92
2023-05-11T13:38:50.644Z,25.50
2023-05-11T13:41:56.218Z,25.12
2023-05-11T13:45:01.161Z,24.51
2023-05-11T13:48:06.295Z,23.89
2023-05-11T13:51:11.465Z,23.65
2023-05-11T13:54:16.328Z,23.91
2023-05-11T13:57:19.950Z,24.10
2023-05-11T14:00:24.756Z,24.26
2023-05-11T14:03:32.720Z,25.19
2023-05-11T14:06:38.739Z,26.17
2023-05-11T14:09:44.547Z,26.88
2023-05-11T14:12:48.971Z,26.68
2023-05-11T14:15:53.804Z,26.66
2023-05-11T14:18:58.317Z,27.04
2023-05-11T14:22:03.880Z,25.63
2023-05-11T14:25:09.160Z,26.09
2023-05-11T14:28:12.972Z,27.68
2023-05-11T14:31:17.250Z,26.10
2023-05-11T14:34:21.852Z,25.28
2023-05-11T14:37:26.784Z,24.88
2023-05-11T14:40:31.978Z,24.42
2023-05-11T14:43:39.107Z,23.96
2023-05-11T14:46:42.481Z,23.66
2023-05-11T14:49:46.015Z,23.60
2023-05-11T14:52:49.426Z,24.20
2023-05-11T14:55:53.026Z,25.14
2023-05-11T14:58:56.701Z,25.20
2023-05-11T15:02:00.707Z,24.17
2023-05-11T15:05:03.878Z,23.61
2023-05-11T15:08:15.253Z,23.26
2023-05-11T15:11:25.275Z,23.19
2023-05-11T15:14:27.898Z,24.46
2023-05-11T15:17:30.457Z,23.99
2023-05-11T15:20:34.674Z,23.35
2023-05-11T15:23:37.263Z,22.97
2023-05-11T15:26:39.851Z,22.66
2023-05-11T15:29:43.005Z,22.55
2023-05-11T15:32:46.066Z,22.36
2023-05-11T15:35:51.929Z,21.90
2023-05-11T15:38:54.506Z,21.70
2023-05-11T15:41:57.074Z,21.70
2023-05-11T15:45:00.108Z,21.41
2023-05-11T15:48:03.226Z,21.31
2023-05-11T15:51:06.104Z,21.17
2023-05-11T15:54:08.806Z,21.03
2023-05-11T15:57:11.733Z,20.97
2023-05-11T16:00:15.758Z,20.74
2023-05-11T16:03:19.781Z,20.86
2023-05-11T16:06:22.784Z,20.88
2023-05-11T16:09:26.510Z,20.83
2023-05-11T16:12:29.174Z,20.63
2023-05-11T16:15:32.030Z,20.57
2023-05-11T16:18:34.889Z,20.31
2023-05-11T16:21:37.709Z,20.40
2023-05-11T16:24:40.182Z,20.37
2023-05-11T16:27:42.799Z,20.33
2023-05-11T16:30:45.546Z,20.36
2023-05-11T16:33:48.122Z,20.34
2023-05-11T16:36:50.784Z,20.17
2023-05-11T16:39:53.374Z,20.04
2023-05-11T16:42:55.976Z,19.95
2023-05-11T16:45:59.085Z,19.96
2023-05-11T16:49:01.620Z,19.92
2023-05-11T16:52:04.619Z,19.76
2023-05-11T16:55:07.548Z,19.62
2023-05-11T16:58:10.279Z,19.66
2023-05-11T17:01:12.794Z,19.68
2023-05-11T17:04:15.823Z,19.63
2023-05-11T17:07:19.571Z,19.60
2023-05-11T17:10:22.525Z,19.60
2023-05-11T17:13:25.569Z,19.49
2023-05-11T17:16:28.774Z,19.20
2023-05-11T17:19:31.755Z,19.05
2023-05-11T17:22:35.768Z,18.97
2023-05-11T17:25:38.431Z,18.91
2023-05-11T17:28:41.156Z,18.82
2023-05-11T17:31:46.877Z,18.80
2023-05-11T17:34:49.825Z,18.64
2023-05-11T17:37:52.573Z,18.74
2023-05-11T17:40:55.269Z,18.69
2023-05-11T17:43:57.999Z,18.61
2023-05-11T17:47:04.641Z,18.60
2023-05-11T17:50:10.692Z,18.53
2023-05-11T17:53:13.230Z,18.36
2023-05-11T17:56:16.631Z,18.19
2023-05-11T17:59:21.031Z,17.92
2023-05-11T18:02:23.855Z,17.86
2023-05-11T18:05:40.221Z,17.79
2023-05-11T18:08:49.224Z,17.59
2023-05-11T18:11:51.799Z,17.52
2023-05-11T18:14:54.238Z,17.47
2023-05-11T18:17:57.551Z,17.32
2023-05-11T18:21:07.498Z,17.22
2023-05-11T18:24:10.621Z,17.15
2023-05-11T18:27:13.177Z,17.10
2023-05-11T18:30:15.892Z,16.99
2023-05-11T18:33:18.461Z,16.94
2023-05-11T18:36:21.098Z,16.95
2023-05-11T18:39:23.649Z,16.86
2023-05-11T18:42:26.174Z,16.81
2023-05-11T18:45:30.392Z,16.76
2023-05-11T18:48:33.727Z,16.83
2023-05-11T18:51:36.266Z,16.62
2023-05-11T18:54:38.944Z,16.53
2023-05-11T18:57:42.035Z,16.33
2023-05-11T19:00:44.697Z,16.15
2023-05-11T19:03:47.348Z,16.09
2023-05-11T19:06:49.943Z,16.07
2023-05-11T19:09:53.728Z,15.94
2023-05-11T19:12:56.734Z,15.86
2023-05-11T19:15:59.582Z,15.81
2023-05-11T19:19:02.773Z,15.75
2023-05-11T19:22:06.888Z,15.56
2023-05-11T19:25:10.305Z,15.43
2023-05-11T19:28:12.808Z,15.42
2023-05-11T19:31:15.521Z,15.30
2023-05-11T19:34:18.084Z,15.29
2023-05-11T19:37:22.288Z,15.13
2023-05-11T19:43:31.347Z,14.91
2023-05-11T19:46:33.887Z,14.73
2023-05-11T19:49:37.011Z,14.64
2023-05-11T19:52:39.682Z,14.64
2023-05-11T19:55:45.405Z,14.61
2023-05-11T19:58:50.397Z,14.67
2023-05-11T20:01:53.089Z,14.57
2023-05-11T20:04:55.644Z,14.57
2023-05-11T20:07:58.227Z,14.54
2023-05-11T20:11:01.332Z,14.54
2023-05-11T20:14:04.807Z,14.47
2023-05-11T20:17:07.650Z,14.45
2023-05-11T20:20:10.598Z,14.48
2023-05-11T20:23:13.334Z,14.43
2023-05-11T20:26:15.870Z,14.20
2023-05-11T20:29:18.407Z,14.03
2023-05-11T20:32:20.862Z,13.98
2023-05-11T20:35:23.410Z,13.93
2023-05-11T20:38:25.839Z,13.91
2023-05-11T20:41:30.271Z,13.89
2023-05-11T20:44:34.181Z,13.85
2023-05-11T20:47:36.672Z,13.77
2023-05-11T20:50:39.782Z,13.78
2023-05-11T20:53:42.339Z,13.65
2023-05-11T20:56:44.894Z,13.59
2023-05-11T21:02:53.894Z,13.62
2023-05-11T21:05:56.613Z,13.68
2023-05-11T21:08:59.616Z,13.66
2023-05-11T21:12:02.052Z,13.68
2023-05-11T21:15:05.077Z,13.67
2023-05-11T21:18:07.826Z,13.65
2023-05-11T21:21:10.575Z,13.59
2023-05-11T21:24:14.057Z,13.54
2023-05-11T21:27:16.599Z,13.53
2023-05-11T21:30:19.242Z,13.52
2023-05-11T21:33:21.974Z,13.55
2023-05-11T21:36:24.548Z,13.54
2023-05-11T21:39:27.041Z,13.51
2023-05-11T21:42:36.149Z,13.49
2023-05-11T21:45:38.699Z,13.59
2023-05-11T21:48:41.257Z,13.53
2023-05-11T21:51:43.890Z,13.50
2023-05-11T21:54:48.211Z,13.55
2023-05-11T21:57:50.725Z,13.49
2023-05-11T22:00:53.555Z,13.50
2023-05-11T22:03:57.355Z,13.56
2023-05-11T22:07:01.515Z,13.65
2023-05-11T22:10:04.604Z,13.64
2023-05-11T22:13:07.353Z,13.63
2023-05-11T22:16:09.943Z,13.63
2023-05-11T22:19:13.450Z,13.59
2023-05-11T22:22:16.554Z,13.48
2023-05-11T22:25:19.212Z,13.51
2023-05-11T22:28:21.705Z,13.57
2023-05-11T22:31:25.577Z,13.60
2023-05-11T22:34:28.120Z,13.52
2023-05-11T22:37:31.257Z,13.53
2023-05-11T22:40:33.761Z,13.54
2023-05-11T22:43:36.342Z,13.50
2023-05-11T22:46:38.790Z,13.51
2023-05-11T22:49:41.343Z,13.51
2023-05-11T22:52:43.850Z,13.53
2023-05-11T22:55:46.601Z,13.54
2023-05-11T22:58:50.136Z,13.53
2023-05-11T23:01:52.694Z,13.56
2023-05-11T23:04:55.385Z,13.55
2023-05-11T23:07:59.979Z,13.57
2023-05-11T23:11:02.431Z,13.58
2023-05-11T23:14:04.919Z,13.61
2023-05-11T23:17:07.501Z,13.66
2023-05-11T23:20:10.631Z,13.57
2023-05-11T23:23:13.530Z,13.51
2023-05-11T23:26:15.958Z,13.47
2023-05-11T23:29:18.423Z,13.40
2023-05-11T23:32:20.955Z,13.38
2023-05-11T23:35:23.441Z,13.33
2023-05-11T23:38:27.897Z,13.34
2023-05-11T23:41:30.399Z,13.41
2023-05-11T23:44:35.366Z,13.31
2023-05-11T23:47:38.048Z,13.33
2023-05-11T23:50:40.719Z,13.31
2023-05-11T23:53:43.233Z,13.35
2023-05-11T23:56:46.788Z,13.32
2023-05-11T23:59:49.211Z,13.34
